sensor_id;sensor_type;location;lat;lon;timestamp;P1;durP1;ratioP1;P2;durP2;ratioP2
8702;SDS011;9002;42.708;23.186;2023-08-06T00:00:22;6.47;;;5.60;;
8702;SDS011;9002;42.708;23.186;2023-08-06T00:02:49;6.13;;;5.40;;
8702;SDS011;9002;42.708;23.186;2023-08-06T00:05:16;7.17;;;5.43;;
8702;SDS011;9002;42.708;23.186;2023-08-06T00:07:46;5.53;;;5.03;;
8702;SDS011;9002;42.708;23.186;2023-08-06T00:10:13;6.07;;;5.43;;
8702;SDS011;9002;42.708;23.186;2023-08-06T00:12:40;6.13;;;5.47;;
8702;SDS011;9002;42.708;23.186;2023-08-06T00:15:07;5.50;;;5.00;;
8702;SDS011;9002;42.708;23.186;2023-08-06T00:17:34;5.07;;;4.57;;
8702;SDS011;9002;42.708;23.186;2023-08-06T00:20:01;5.57;;;4.50;;
8702;SDS011;9002;42.708;23.186;2023-08-06T00:22:30;5.93;;;4.77;;
8702;SDS011;9002;42.708;23.186;2023-08-06T00:24:57;4.90;;;4.40;;
8702;SDS011;9002;42.708;23.186;2023-08-06T00:27:25;5.93;;;4.33;;
8702;SDS011;9002;42.708;23.186;2023-08-06T00:29:52;5.10;;;4.60;;
8702;SDS011;9002;42.708;23.186;2023-08-06T00:32:19;4.40;;;4.00;;
8702;SDS011;9002;42.708;23.186;2023-08-06T00:34:46;5.73;;;4.30;;
8702;SDS011;9002;42.708;23.186;2023-08-06T00:37:14;6.23;;;4.73;;
8702;SDS011;9002;42.708;23.186;2023-08-06T00:39:42;5.63;;;4.50;;
8702;SDS011;9002;42.708;23.186;2023-08-06T00:42:09;4.67;;;4.17;;
8702;SDS011;9002;42.708;23.186;2023-08-06T00:44:37;6.00;;;4.43;;
8702;SDS011;9002;42.708;23.186;2023-08-06T00:47:04;4.80;;;4.37;;
8702;SDS011;9002;42.708;23.186;2023-08-06T00:49:32;4.60;;;4.20;;
8702;SDS011;9002;42.708;23.186;2023-08-06T00:51:59;4.40;;;4.00;;
8702;SDS011;9002;42.708;23.186;2023-08-06T00:54:26;3.97;;;3.43;;
8702;SDS011;9002;42.708;23.186;2023-08-06T00:56:54;5.20;;;4.13;;
8702;SDS011;9002;42.708;23.186;2023-08-06T00:59:22;4.10;;;3.70;;
8702;SDS011;9002;42.708;23.186;2023-08-06T01:01:50;6.03;;;4.10;;
8702;SDS011;9002;42.708;23.186;2023-08-06T01:04:18;4.03;;;3.63;;
8702;SDS011;9002;42.708;23.186;2023-08-06T01:06:46;4.20;;;3.80;;
8702;SDS011;9002;42.708;23.186;2023-08-06T01:09:21;4.27;;;3.97;;
8702;SDS011;9002;42.708;23.186;2023-08-06T01:11:59;4.53;;;4.00;;
8702;SDS011;9002;42.708;23.186;2023-08-06T01:14:33;4.20;;;3.80;;
8702;SDS011;9002;42.708;23.186;2023-08-06T01:17:12;4.47;;;3.90;;
8702;SDS011;9002;42.708;23.186;2023-08-06T01:19:40;4.37;;;3.97;;
8702;SDS011;9002;42.708;23.186;2023-08-06T01:22:09;4.40;;;4.00;;
8702;SDS011;9002;42.708;23.186;2023-08-06T01:24:35;5.17;;;4.10;;
8702;SDS011;9002;42.708;23.186;2023-08-06T01:27:03;5.20;;;4.23;;
8702;SDS011;9002;42.708;23.186;2023-08-06T01:29:39;4.87;;;4.47;;
8702;SDS011;9002;42.708;23.186;2023-08-06T01:32:10;5.17;;;4.50;;
8702;SDS011;9002;42.708;23.186;2023-08-06T01:34:39;6.10;;;4.43;;
8702;SDS011;9002;42.708;23.186;2023-08-06T01:37:09;5.77;;;4.60;;
8702;SDS011;9002;42.708;23.186;2023-08-06T01:39:37;5.13;;;4.63;;
8702;SDS011;9002;42.708;23.186;2023-08-06T01:42:08;5.57;;;5.07;;
8702;SDS011;9002;42.708;23.186;2023-08-06T01:44:35;7.57;;;5.60;;
8702;SDS011;9002;42.708;23.186;2023-08-06T01:47:02;7.00;;;5.70;;
8702;SDS011;9002;42.708;23.186;2023-08-06T01:49:29;6.57;;;5.70;;
8702;SDS011;9002;42.708;23.186;2023-08-06T01:51:56;6.07;;;5.47;;
8702;SDS011;9002;42.708;23.186;2023-08-06T01:54:24;7.70;;;5.90;;
8702;SDS011;9002;42.708;23.186;2023-08-06T01:56:51;8.07;;;5.33;;
8702;SDS011;9002;42.708;23.186;2023-08-06T01:59:18;5.70;;;5.10;;
8702;SDS011;9002;42.708;23.186;2023-08-06T02:01:45;5.47;;;4.97;;
8702;SDS011;9002;42.708;23.186;2023-08-06T02:04:11;6.67;;;4.57;;
8702;SDS011;9002;42.708;23.186;2023-08-06T02:06:38;5.50;;;4.50;;
8702;SDS011;9002;42.708;23.186;2023-08-06T02:09:05;6.17;;;5.07;;
8702;SDS011;9002;42.708;23.186;2023-08-06T02:11:33;6.83;;;4.50;;
8702;SDS011;9002;42.708;23.186;2023-08-06T02:14:00;7.53;;;4.27;;
8702;SDS011;9002;42.708;23.186;2023-08-06T02:16:27;6.60;;;5.20;;
8702;SDS011;9002;42.708;23.186;2023-08-06T02:18:54;5.43;;;4.67;;
8702;SDS011;9002;42.708;23.186;2023-08-06T02:21:21;5.73;;;5.13;;
8702;SDS011;9002;42.708;23.186;2023-08-06T02:23:47;6.17;;;4.80;;
8702;SDS011;9002;42.708;23.186;2023-08-06T02:26:14;5.20;;;4.70;;
8702;SDS011;9002;42.708;23.186;2023-08-06T02:31:29;8.40;;;6.70;;
8702;SDS011;9002;42.708;23.186;2023-08-06T02:33:55;10.73;;;6.30;;
8702;SDS011;9002;42.708;23.186;2023-08-06T02:36:23;10.00;;;6.33;;
8702;SDS011;9002;42.708;23.186;2023-08-06T02:38:54;6.70;;;5.77;;
8702;SDS011;9002;42.708;23.186;2023-08-06T02:41:21;7.10;;;5.83;;
8702;SDS011;9002;42.708;23.186;2023-08-06T02:43:48;7.63;;;6.20;;
8702;SDS011;9002;42.708;23.186;2023-08-06T02:46:16;5.97;;;5.37;;
8702;SDS011;9002;42.708;23.186;2023-08-06T02:48:43;7.43;;;6.63;;
8702;SDS011;9002;42.708;23.186;2023-08-06T02:51:10;7.33;;;6.47;;
8702;SDS011;9002;42.708;23.186;2023-08-06T02:53:36;6.87;;;6.27;;
8702;SDS011;9002;42.708;23.186;2023-08-06T02:56:03;6.93;;;6.20;;
8702;SDS011;9002;42.708;23.186;2023-08-06T02:58:30;6.77;;;5.77;;
8702;SDS011;9002;42.708;23.186;2023-08-06T03:01:00;7.30;;;5.17;;
8702;SDS011;9002;42.708;23.186;2023-08-06T03:03:30;6.53;;;5.93;;
8702;SDS011;9002;42.708;23.186;2023-08-06T03:05:58;6.33;;;5.70;;
8702;SDS011;9002;42.708;23.186;2023-08-06T03:08:25;5.83;;;5.10;;
8702;SDS011;9002;42.708;23.186;2023-08-06T03:10:52;5.93;;;5.33;;
8702;SDS011;9002;42.708;23.186;2023-08-06T03:13:19;6.47;;;5.87;;
8702;SDS011;9002;42.708;23.186;2023-08-06T03:15:52;5.43;;;4.90;;
8702;SDS011;9002;42.708;23.186;2023-08-06T03:18:20;5.53;;;5.03;;
8702;SDS011;9002;42.708;23.186;2023-08-06T03:20:48;9.13;;;5.90;;
8702;SDS011;9002;42.708;23.186;2023-08-06T03:23:16;6.73;;;6.00;;
8702;SDS011;9002;42.708;23.186;2023-08-06T03:28:13;5.30;;;4.80;;
8702;SDS011;9002;42.708;23.186;2023-08-06T03:30:40;4.73;;;4.33;;
8702;SDS011;9002;42.708;23.186;2023-08-06T03:33:06;6.90;;;4.43;;
8702;SDS011;9002;42.708;23.186;2023-08-06T03:35:33;5.60;;;5.07;;
8702;SDS011;9002;42.708;23.186;2023-08-06T03:38:01;5.00;;;4.37;;
8702;SDS011;9002;42.708;23.186;2023-08-06T03:40:28;5.47;;;4.97;;
8702;SDS011;9002;42.708;23.186;2023-08-06T03:42:55;5.20;;;4.70;;
8702;SDS011;9002;42.708;23.186;2023-08-06T03:45:21;6.47;;;4.67;;
8702;SDS011;9002;42.708;23.186;2023-08-06T03:47:48;5.40;;;4.70;;
8702;SDS011;9002;42.708;23.186;2023-08-06T03:50:15;4.00;;;3.60;;
8702;SDS011;9002;42.708;23.186;2023-08-06T03:52:42;5.23;;;4.17;;
8702;SDS011;9002;42.708;23.186;2023-08-06T03:55:10;4.17;;;3.70;;
8702;SDS011;9002;42.708;23.186;2023-08-06T03:57:37;3.73;;;3.33;;
8702;SDS011;9002;42.708;23.186;2023-08-06T04:00:04;4.43;;;4.03;;
8702;SDS011;9002;42.708;23.186;2023-08-06T04:02:31;4.57;;;3.80;;
8702;SDS011;9002;42.708;23.186;2023-08-06T04:04:58;4.83;;;4.20;;
8702;SDS011;9002;42.708;23.186;2023-08-06T04:07:25;4.63;;;4.23;;
8702;SDS011;9002;42.708;23.186;2023-08-06T04:09:52;4.83;;;4.37;;
8702;SDS011;9002;42.708;23.186;2023-08-06T04:12:22;4.27;;;3.87;;
8702;SDS011;9002;42.708;23.186;2023-08-06T04:14:49;3.97;;;3.63;;
8702;SDS011;9002;42.708;23.186;2023-08-06T04:17:16;4.40;;;4.00;;
8702;SDS011;9002;42.708;23.186;2023-08-06T04:19:45;4.97;;;4.10;;
8702;SDS011;9002;42.708;23.186;2023-08-06T04:22:12;5.67;;;4.43;;
8702;SDS011;9002;42.708;23.186;2023-08-06T04:24:39;5.23;;;4.67;;
8702;SDS011;9002;42.708;23.186;2023-08-06T04:27:06;5.73;;;4.10;;
8702;SDS011;9002;42.708;23.186;2023-08-06T04:32:10;4.77;;;4.37;;
8702;SDS011;9002;42.708;23.186;2023-08-06T04:34:38;5.10;;;4.70;;
8702;SDS011;9002;42.708;23.186;2023-08-06T04:37:05;6.50;;;4.40;;
8702;SDS011;9002;42.708;23.186;2023-08-06T04:39:32;4.70;;;4.20;;
8702;SDS011;9002;42.708;23.186;2023-08-06T04:41:58;5.33;;;4.27;;
8702;SDS011;9002;42.708;23.186;2023-08-06T04:44:25;4.77;;;4.37;;
8702;SDS011;9002;42.708;23.186;2023-08-06T04:46:52;5.53;;;5.07;;
8702;SDS011;9002;42.708;23.186;2023-08-06T04:49:21;7.87;;;7.07;;
8702;SDS011;9002;42.708;23.186;2023-08-06T04:51:48;8.20;;;7.20;;
8702;SDS011;9002;42.708;23.186;2023-08-06T04:54:14;8.13;;;7.33;;
8702;SDS011;9002;42.708;23.186;2023-08-06T04:56:41;7.50;;;6.80;;
8702;SDS011;9002;42.708;23.186;2023-08-06T04:59:08;7.80;;;7.00;;
8702;SDS011;9002;42.708;23.186;2023-08-06T05:01:35;7.63;;;6.70;;
8702;SDS011;9002;42.708;23.186;2023-08-06T05:04:02;6.60;;;5.93;;
8702;SDS011;9002;42.708;23.186;2023-08-06T05:06:30;6.60;;;6.00;;
8702;SDS011;9002;42.708;23.186;2023-08-06T05:08:56;5.43;;;4.30;;
8702;SDS011;9002;42.708;23.186;2023-08-06T05:11:23;4.90;;;4.50;;
8702;SDS011;9002;42.708;23.186;2023-08-06T05:13:50;4.90;;;4.40;;
8702;SDS011;9002;42.708;23.186;2023-08-06T05:16:17;5.53;;;4.63;;
8702;SDS011;9002;42.708;23.186;2023-08-06T05:18:44;5.77;;;4.80;;
8702;SDS011;9002;42.708;23.186;2023-08-06T05:21:10;6.63;;;5.30;;
8702;SDS011;9002;42.708;23.186;2023-08-06T05:23:40;7.00;;;6.30;;
8702;SDS011;9002;42.708;23.186;2023-08-06T05:26:07;7.43;;;6.73;;
8702;SDS011;9002;42.708;23.186;2023-08-06T05:28:34;9.43;;;8.50;;
8702;SDS011;9002;42.708;23.186;2023-08-06T05:31:02;9.00;;;8.30;;
8702;SDS011;9002;42.708;23.186;2023-08-06T05:33:30;9.30;;;8.30;;
8702;SDS011;9002;42.708;23.186;2023-08-06T05:35:56;10.53;;;9.50;;
8702;SDS011;9002;42.708;23.186;2023-08-06T05:38:23;12.03;;;10.83;;
8702;SDS011;9002;42.708;23.186;2023-08-06T05:40:51;12.70;;;11.50;;
8702;SDS011;9002;42.708;23.186;2023-08-06T05:43:18;14.40;;;12.80;;
8702;SDS011;9002;42.708;23.186;2023-08-06T05:45:45;12.70;;;11.40;;
8702;SDS011;9002;42.708;23.186;2023-08-06T05:48:12;11.00;;;7.80;;
8702;SDS011;9002;42.708;23.186;2023-08-06T05:50:39;6.80;;;6.10;;
8702;SDS011;9002;42.708;23.186;2023-08-06T05:53:05;6.17;;;5.60;;
8702;SDS011;9002;42.708;23.186;2023-08-06T05:55:32;5.43;;;4.93;;
8702;SDS011;9002;42.708;23.186;2023-08-06T05:58:02;4.67;;;4.20;;
8702;SDS011;9002;42.708;23.186;2023-08-06T06:00:28;4.40;;;4.00;;
8702;SDS011;9002;42.708;23.186;2023-08-06T06:02:55;5.07;;;3.50;;
8702;SDS011;9002;42.708;23.186;2023-08-06T06:05:22;3.83;;;3.33;;
8702;SDS011;9002;42.708;23.186;2023-08-06T06:07:48;3.47;;;3.17;;
8702;SDS011;9002;42.708;23.186;2023-08-06T06:10:15;3.70;;;3.40;;
8702;SDS011;9002;42.708;23.186;2023-08-06T06:12:42;4.47;;;4.07;;
8702;SDS011;9002;42.708;23.186;2023-08-06T06:15:10;4.10;;;3.20;;
8702;SDS011;9002;42.708;23.186;2023-08-06T06:17:38;4.13;;;3.13;;
8702;SDS011;9002;42.708;23.186;2023-08-06T06:20:05;4.27;;;2.77;;
8702;SDS011;9002;42.708;23.186;2023-08-06T06:22:33;3.20;;;2.90;;
8702;SDS011;9002;42.708;23.186;2023-08-06T06:24:59;3.13;;;2.80;;
8702;SDS011;9002;42.708;23.186;2023-08-06T06:27:26;3.17;;;2.33;;
8702;SDS011;9002;42.708;23.186;2023-08-06T06:29:54;4.60;;;2.70;;
8702;SDS011;9002;42.708;23.186;2023-08-06T06:32:23;4.77;;;3.00;;
8702;SDS011;9002;42.708;23.186;2023-08-06T06:34:49;3.63;;;2.83;;
8702;SDS011;9002;42.708;23.186;2023-08-06T06:37:16;4.67;;;3.50;;
8702;SDS011;9002;42.708;23.186;2023-08-06T06:39:43;3.30;;;2.97;;
8702;SDS011;9002;42.708;23.186;2023-08-06T06:42:10;4.53;;;2.80;;
8702;SDS011;9002;42.708;23.186;2023-08-06T06:44:37;3.70;;;2.90;;
8702;SDS011;9002;42.708;23.186;2023-08-06T06:47:04;4.53;;;3.23;;
8702;SDS011;9002;42.708;23.186;2023-08-06T06:49:32;4.23;;;3.20;;
8702;SDS011;9002;42.708;23.186;2023-08-06T06:51:59;4.37;;;3.70;;
8702;SDS011;9002;42.708;23.186;2023-08-06T06:54:26;5.70;;;3.23;;
8702;SDS011;9002;42.708;23.186;2023-08-06T06:56:52;3.37;;;3.07;;
8702;SDS011;9002;42.708;23.186;2023-08-06T06:59:19;4.80;;;3.60;;
8702;SDS011;9002;42.708;23.186;2023-08-06T07:01:46;4.50;;;3.77;;
8702;SDS011;9002;42.708;23.186;2023-08-06T07:04:13;3.77;;;3.07;;
8702;SDS011;9002;42.708;23.186;2023-08-06T07:06:41;3.60;;;3.13;;
8702;SDS011;9002;42.708;23.186;2023-08-06T07:09:08;3.40;;;3.20;;
8702;SDS011;9002;42.708;23.186;2023-08-06T07:11:35;4.63;;;3.37;;
8702;SDS011;9002;42.708;23.186;2023-08-06T07:14:02;3.70;;;3.40;;
8702;SDS011;9002;42.708;23.186;2023-08-06T07:16:28;4.10;;;3.63;;
8702;SDS011;9002;42.708;23.186;2023-08-06T07:18:55;4.60;;;3.70;;
8702;SDS011;9002;42.708;23.186;2023-08-06T07:21:22;4.77;;;4.10;;
8702;SDS011;9002;42.708;23.186;2023-08-06T07:23:50;4.73;;;3.80;;
8702;SDS011;9002;42.708;23.186;2023-08-06T07:26:17;4.70;;;3.90;;
8702;SDS011;9002;42.708;23.186;2023-08-06T07:28:44;3.73;;;3.43;;
8702;SDS011;9002;42.708;23.186;2023-08-06T07:31:11;4.10;;;3.73;;
8702;SDS011;9002;42.708;23.186;2023-08-06T07:33:37;3.60;;;3.30;;
8702;SDS011;9002;42.708;23.186;2023-08-06T07:36:09;5.47;;;3.60;;
8702;SDS011;9002;42.708;23.186;2023-08-06T07:38:37;4.00;;;3.60;;
8702;SDS011;9002;42.708;23.186;2023-08-06T07:41:05;4.30;;;3.50;;
8702;SDS011;9002;42.708;23.186;2023-08-06T07:43:32;4.70;;;3.73;;
8702;SDS011;9002;42.708;23.186;2023-08-06T07:45:59;3.80;;;3.50;;
8702;SDS011;9002;42.708;23.186;2023-08-06T07:48:26;3.90;;;3.60;;
8702;SDS011;9002;42.708;23.186;2023-08-06T07:50:53;3.70;;;3.40;;
8702;SDS011;9002;42.708;23.186;2023-08-06T07:53:20;4.10;;;3.30;;
8702;SDS011;9002;42.708;23.186;2023-08-06T07:55:49;4.17;;;3.73;;
8702;SDS011;9002;42.708;23.186;2023-08-06T07:58:17;5.03;;;3.57;;
8702;SDS011;9002;42.708;23.186;2023-08-06T08:00:44;5.47;;;3.63;;
8702;SDS011;9002;42.708;23.186;2023-08-06T08:03:11;3.97;;;3.67;;
8702;SDS011;9002;42.708;23.186;2023-08-06T08:05:38;4.47;;;3.77;;
8702;SDS011;9002;42.708;23.186;2023-08-06T08:08:08;4.20;;;3.80;;
8702;SDS011;9002;42.708;23.186;2023-08-06T08:10:35;4.13;;;3.50;;
8702;SDS011;9002;42.708;23.186;2023-08-06T08:13:03;4.87;;;3.83;;
8702;SDS011;9002;42.708;23.186;2023-08-06T08:15:31;4.13;;;3.77;;
8702;SDS011;9002;42.708;23.186;2023-08-06T08:17:59;4.97;;;3.40;;
8702;SDS011;9002;42.708;23.186;2023-08-06T08:20:26;4.50;;;4.10;;
8702;SDS011;9002;42.708;23.186;2023-08-06T08:22:56;4.60;;;3.70;;
8702;SDS011;9002;42.708;23.186;2023-08-06T08:25:24;3.83;;;3.53;;
8702;SDS011;9002;42.708;23.186;2023-08-06T08:27:52;4.57;;;3.87;;
8702;SDS011;9002;42.708;23.186;2023-08-06T08:30:18;4.30;;;3.90;;
8702;SDS011;9002;42.708;23.186;2023-08-06T08:32:46;3.93;;;3.50;;
8702;SDS011;9002;42.708;23.186;2023-08-06T08:35:13;4.17;;;3.77;;
8702;SDS011;9002;42.708;23.186;2023-08-06T08:37:41;4.10;;;3.70;;
8702;SDS011;9002;42.708;23.186;2023-08-06T08:40:08;4.37;;;3.90;;
8702;SDS011;9002;42.708;23.186;2023-08-06T08:42:35;4.13;;;3.83;;
8702;SDS011;9002;42.708;23.186;2023-08-06T08:45:03;4.20;;;3.80;;
8702;SDS011;9002;42.708;23.186;2023-08-06T08:47:33;4.00;;;3.60;;
8702;SDS011;9002;42.708;23.186;2023-08-06T08:50:01;5.47;;;4.00;;
8702;SDS011;9002;42.708;23.186;2023-08-06T08:52:28;4.87;;;4.03;;
8702;SDS011;9002;42.708;23.186;2023-08-06T08:54:57;4.03;;;3.63;;
8702;SDS011;9002;42.708;23.186;2023-08-06T09:12:58;5.47;;;4.30;;
8702;SDS011;9002;42.708;23.186;2023-08-06T09:15:27;4.47;;;4.07;;
8702;SDS011;9002;42.708;23.186;2023-08-06T09:17:54;3.93;;;3.63;;
8702;SDS011;9002;42.708;23.186;2023-08-06T09:20:21;6.60;;;4.37;;
8702;SDS011;9002;42.708;23.186;2023-08-06T09:22:48;4.20;;;3.80;;
8702;SDS011;9002;42.708;23.186;2023-08-06T09:25:19;5.17;;;4.03;;
8702;SDS011;9002;42.708;23.186;2023-08-06T09:27:48;6.20;;;3.90;;
8702;SDS011;9002;42.708;23.186;2023-08-06T09:30:28;3.87;;;3.50;;
8702;SDS011;9002;42.708;23.186;2023-08-06T09:32:56;4.03;;;3.47;;
8702;SDS011;9002;42.708;23.186;2023-08-06T09:35:23;4.33;;;3.33;;
8702;SDS011;9002;42.708;23.186;2023-08-06T09:37:50;4.43;;;3.23;;
8702;SDS011;9002;42.708;23.186;2023-08-06T09:43:02;4.87;;;3.00;;
8702;SDS011;9002;42.708;23.186;2023-08-06T09:45:32;3.27;;;2.97;;
8702;SDS011;9002;42.708;23.186;2023-08-06T09:48:00;3.13;;;2.93;;
8702;SDS011;9002;42.708;23.186;2023-08-06T09:50:28;3.37;;;3.07;;
8702;SDS011;9002;42.708;23.186;2023-08-06T09:52:56;5.23;;;3.20;;
8702;SDS011;9002;42.708;23.186;2023-08-06T09:55:24;2.93;;;2.73;;
8702;SDS011;9002;42.708;23.186;2023-08-06T09:57:51;4.03;;;3.00;;
8702;SDS011;9002;42.708;23.186;2023-08-06T10:00:19;2.70;;;2.47;;
8702;SDS011;9002;42.708;23.186;2023-08-06T10:02:47;7.43;;;2.80;;
8702;SDS011;9002;42.708;23.186;2023-08-06T10:05:16;3.37;;;3.07;;
8702;SDS011;9002;42.708;23.186;2023-08-06T10:07:44;3.50;;;3.20;;
8702;SDS011;9002;42.708;23.186;2023-08-06T10:10:11;3.07;;;2.80;;
8702;SDS011;9002;42.708;23.186;2023-08-06T10:12:39;3.50;;;3.07;;
8702;SDS011;9002;42.708;23.186;2023-08-06T10:15:10;4.70;;;4.17;;
8702;SDS011;9002;42.708;23.186;2023-08-06T10:17:41;3.53;;;3.23;;
8702;SDS011;9002;42.708;23.186;2023-08-06T10:20:11;3.23;;;2.80;;
8702;SDS011;9002;42.708;23.186;2023-08-06T10:22:41;3.40;;;2.70;;
8702;SDS011;9002;42.708;23.186;2023-08-06T10:25:09;4.13;;;3.50;;
8702;SDS011;9002;42.708;23.186;2023-08-06T10:27:40;3.80;;;3.50;;
8702;SDS011;9002;42.708;23.186;2023-08-06T10:30:25;6.23;;;5.63;;
8702;SDS011;9002;42.708;23.186;2023-08-06T10:32:54;5.13;;;4.30;;
8702;SDS011;9002;42.708;23.186;2023-08-06T10:35:30;7.53;;;6.87;;
8702;SDS011;9002;42.708;23.186;2023-08-06T10:37:59;4.47;;;3.20;;
8702;SDS011;9002;42.708;23.186;2023-08-06T10:40:29;4.50;;;3.00;;
8702;SDS011;9002;42.708;23.186;2023-08-06T10:42:58;4.27;;;3.73;;
8702;SDS011;9002;42.708;23.186;2023-08-06T10:45:25;4.30;;;3.57;;
8702;SDS011;9002;42.708;23.186;2023-08-06T10:47:54;5.23;;;3.70;;
8702;SDS011;9002;42.708;23.186;2023-08-06T10:50:22;3.47;;;2.87;;
8702;SDS011;9002;42.708;23.186;2023-08-06T10:52:50;3.37;;;3.07;;
8702;SDS011;9002;42.708;23.186;2023-08-06T10:55:24;3.30;;;3.00;;
8702;SDS011;9002;42.708;23.186;2023-08-06T10:57:52;3.33;;;3.03;;
8702;SDS011;9002;42.708;23.186;2023-08-06T11:00:20;3.37;;;3.07;;
8702;SDS011;9002;42.708;23.186;2023-08-06T11:02:47;4.00;;;3.27;;
8702;SDS011;9002;42.708;23.186;2023-08-06T11:05:15;3.40;;;3.10;;
8702;SDS011;9002;42.708;23.186;2023-08-06T11:07:42;3.93;;;3.20;;
8702;SDS011;9002;42.708;23.186;2023-08-06T11:10:10;3.93;;;3.57;;
8702;SDS011;9002;42.708;23.186;2023-08-06T11:12:38;5.33;;;4.10;;
8702;SDS011;9002;42.708;23.186;2023-08-06T11:15:05;5.00;;;3.90;;
8702;SDS011;9002;42.708;23.186;2023-08-06T11:17:34;4.63;;;4.23;;
8702;SDS011;9002;42.708;23.186;2023-08-06T11:20:01;4.53;;;4.13;;
8702;SDS011;9002;42.708;23.186;2023-08-06T11:22:29;5.30;;;4.80;;
8702;SDS011;9002;42.708;23.186;2023-08-06T11:24:56;5.13;;;4.60;;
8702;SDS011;9002;42.708;23.186;2023-08-06T11:27:25;5.07;;;4.13;;
8702;SDS011;9002;42.708;23.186;2023-08-06T11:29:53;4.23;;;3.90;;
8702;SDS011;9002;42.708;23.186;2023-08-06T11:32:20;5.07;;;4.20;;
8702;SDS011;9002;42.708;23.186;2023-08-06T11:34:46;4.63;;;3.90;;
8702;SDS011;9002;42.708;23.186;2023-08-06T11:37:13;4.20;;;3.80;;
8702;SDS011;9002;42.708;23.186;2023-08-06T11:39:44;4.47;;;4.03;;
8702;SDS011;9002;42.708;23.186;2023-08-06T11:42:13;5.27;;;3.97;;
8702;SDS011;9002;42.708;23.186;2023-08-06T11:44:41;4.23;;;3.83;;
8702;SDS011;9002;42.708;23.186;2023-08-06T11:47:12;5.27;;;4.20;;
8702;SDS011;9002;42.708;23.186;2023-08-06T11:49:40;4.23;;;3.83;;
8702;SDS011;9002;42.708;23.186;2023-08-06T11:52:10;4.27;;;3.87;;
8702;SDS011;9002;42.708;23.186;2023-08-06T11:54:43;4.93;;;4.30;;
8702;SDS011;9002;42.708;23.186;2023-08-06T11:57:11;4.00;;;3.70;;
8702;SDS011;9002;42.708;23.186;2023-08-06T11:59:38;4.63;;;4.20;;
8702;SDS011;9002;42.708;23.186;2023-08-06T12:02:07;4.90;;;4.27;;
8702;SDS011;9002;42.708;23.186;2023-08-06T12:07:26;5.10;;;4.70;;
8702;SDS011;9002;42.708;23.186;2023-08-06T12:09:53;5.10;;;4.57;;
8702;SDS011;9002;42.708;23.186;2023-08-06T12:12:20;5.90;;;5.30;;
8702;SDS011;9002;42.708;23.186;2023-08-06T12:14:47;5.50;;;5.00;;
8702;SDS011;9002;42.708;23.186;2023-08-06T12:17:15;6.00;;;5.50;;
8702;SDS011;9002;42.708;23.186;2023-08-06T12:19:42;5.90;;;5.33;;
8702;SDS011;9002;42.708;23.186;2023-08-06T12:22:10;6.67;;;5.97;;
8702;SDS011;9002;42.708;23.186;2023-08-06T12:24:38;5.27;;;4.87;;
8702;SDS011;9002;42.708;23.186;2023-08-06T12:27:05;5.90;;;5.37;;
8702;SDS011;9002;42.708;23.186;2023-08-06T12:29:32;6.20;;;5.70;;
8702;SDS011;9002;42.708;23.186;2023-08-06T12:31:58;6.83;;;6.23;;
8702;SDS011;9002;42.708;23.186;2023-08-06T12:34:26;6.20;;;5.70;;
8702;SDS011;9002;42.708;23.186;2023-08-06T12:36:53;5.97;;;5.37;;
8702;SDS011;9002;42.708;23.186;2023-08-06T12:39:20;6.50;;;5.90;;
8702;SDS011;9002;42.708;23.186;2023-08-06T12:41:47;6.33;;;5.83;;
8702;SDS011;9002;42.708;23.186;2023-08-06T12:44:14;6.30;;;5.70;;
8702;SDS011;9002;42.708;23.186;2023-08-06T12:46:40;6.30;;;5.80;;
8702;SDS011;9002;42.708;23.186;2023-08-06T12:49:07;6.17;;;5.53;;
8702;SDS011;9002;42.708;23.186;2023-08-06T12:51:35;7.13;;;6.07;;
8702;SDS011;9002;42.708;23.186;2023-08-06T12:54:02;6.63;;;6.03;;
8702;SDS011;9002;42.708;23.186;2023-08-06T12:56:29;6.73;;;6.13;;
8702;SDS011;9002;42.708;23.186;2023-08-06T12:58:55;6.80;;;6.20;;
8702;SDS011;9002;42.708;23.186;2023-08-06T13:01:22;7.07;;;6.37;;
8702;SDS011;9002;42.708;23.186;2023-08-06T13:03:49;7.13;;;6.27;;
8702;SDS011;9002;42.708;23.186;2023-08-06T13:06:15;6.03;;;5.53;;
8702;SDS011;9002;42.708;23.186;2023-08-06T13:08:44;6.27;;;5.67;;
8702;SDS011;9002;42.708;23.186;2023-08-06T13:11:10;6.40;;;5.87;;
8702;SDS011;9002;42.708;23.186;2023-08-06T13:13:37;9.53;;;6.13;;
8702;SDS011;9002;42.708;23.186;2023-08-06T13:16:04;6.70;;;5.97;;
8702;SDS011;9002;42.708;23.186;2023-08-06T13:18:31;6.67;;;6.07;;
8702;SDS011;9002;42.708;23.186;2023-08-06T13:20:57;8.83;;;6.30;;
8702;SDS011;9002;42.708;23.186;2023-08-06T13:23:24;6.03;;;5.53;;
8702;SDS011;9002;42.708;23.186;2023-08-06T13:25:52;6.97;;;5.60;;
8702;SDS011;9002;42.708;23.186;2023-08-06T13:28:20;6.10;;;5.50;;
8702;SDS011;9002;42.708;23.186;2023-08-06T13:30:47;6.97;;;6.37;;
8702;SDS011;9002;42.708;23.186;2023-08-06T13:33:14;8.77;;;7.93;;
8702;SDS011;9002;42.708;23.186;2023-08-06T13:35:40;6.23;;;5.63;;
8702;SDS011;9002;42.708;23.186;2023-08-06T13:38:07;8.53;;;5.97;;
8702;SDS011;9002;42.708;23.186;2023-08-06T13:40:33;7.17;;;5.87;;
8702;SDS011;9002;42.708;23.186;2023-08-06T13:43:01;6.17;;;5.57;;
8702;SDS011;9002;42.708;23.186;2023-08-06T13:45:28;5.90;;;5.37;;
8702;SDS011;9002;42.708;23.186;2023-08-06T13:47:56;6.57;;;5.33;;
8702;SDS011;9002;42.708;23.186;2023-08-06T13:50:23;6.33;;;5.73;;
8702;SDS011;9002;42.708;23.186;2023-08-06T13:52:50;6.50;;;5.80;;
8702;SDS011;9002;42.708;23.186;2023-08-06T13:55:20;6.90;;;6.20;;
8702;SDS011;9002;42.708;23.186;2023-08-06T13:57:47;5.93;;;5.43;;
8702;SDS011;9002;42.708;23.186;2023-08-06T14:00:15;6.00;;;5.50;;
8702;SDS011;9002;42.708;23.186;2023-08-06T14:02:42;6.03;;;5.43;;
8702;SDS011;9002;42.708;23.186;2023-08-06T14:05:10;5.80;;;5.20;;
8702;SDS011;9002;42.708;23.186;2023-08-06T14:07:37;5.97;;;5.17;;
8702;SDS011;9002;42.708;23.186;2023-08-06T14:10:04;5.20;;;4.70;;
8702;SDS011;9002;42.708;23.186;2023-08-06T14:12:31;5.33;;;4.77;;
8702;SDS011;9002;42.708;23.186;2023-08-06T14:14:58;5.30;;;4.80;;
8702;SDS011;9002;42.708;23.186;2023-08-06T14:17:26;7.07;;;4.70;;
8702;SDS011;9002;42.708;23.186;2023-08-06T14:19:53;7.90;;;6.17;;
8702;SDS011;9002;42.708;23.186;2023-08-06T14:22:21;7.67;;;6.97;;
8702;SDS011;9002;42.708;23.186;2023-08-06T14:24:48;5.40;;;4.90;;
8702;SDS011;9002;42.708;23.186;2023-08-06T14:27:14;8.10;;;5.00;;
8702;SDS011;9002;42.708;23.186;2023-08-06T14:29:41;4.87;;;4.47;;
8702;SDS011;9002;42.708;23.186;2023-08-06T14:32:08;5.47;;;4.97;;
8702;SDS011;9002;42.708;23.186;2023-08-06T14:34:36;5.00;;;4.50;;
8702;SDS011;9002;42.708;23.186;2023-08-06T14:37:03;4.57;;;4.17;;
8702;SDS011;9002;42.708;23.186;2023-08-06T14:39:30;6.13;;;4.40;;
8702;SDS011;9002;42.708;23.186;2023-08-06T14:41:56;4.80;;;4.40;;
8702;SDS011;9002;42.708;23.186;2023-08-06T14:44:23;5.50;;;4.80;;
8702;SDS011;9002;42.708;23.186;2023-08-06T14:46:50;5.57;;;4.67;;
8702;SDS011;9002;42.708;23.186;2023-08-06T14:49:16;5.50;;;4.80;;
8702;SDS011;9002;42.708;23.186;2023-08-06T14:51:45;4.83;;;4.43;;
8702;SDS011;9002;42.708;23.186;2023-08-06T14:54:12;5.20;;;4.80;;
8702;SDS011;9002;42.708;23.186;2023-08-06T14:56:38;5.57;;;5.07;;
8702;SDS011;9002;42.708;23.186;2023-08-06T14:59:05;5.37;;;4.87;;
8702;SDS011;9002;42.708;23.186;2023-08-06T15:01:32;5.40;;;4.90;;
8702;SDS011;9002;42.708;23.186;2023-08-06T15:03:59;4.97;;;4.50;;
8702;SDS011;9002;42.708;23.186;2023-08-06T15:06:25;5.60;;;4.47;;
8702;SDS011;9002;42.708;23.186;2023-08-06T15:08:53;4.70;;;4.30;;
8702;SDS011;9002;42.708;23.186;2023-08-06T15:11:23;4.40;;;4.00;;
8702;SDS011;9002;42.708;23.186;2023-08-06T15:13:50;4.87;;;4.30;;
8702;SDS011;9002;42.708;23.186;2023-08-06T15:16:20;5.10;;;4.60;;
8702;SDS011;9002;42.708;23.186;2023-08-06T15:18:47;5.10;;;4.60;;
8702;SDS011;9002;42.708;23.186;2023-08-06T15:21:14;4.73;;;4.10;;
8702;SDS011;9002;42.708;23.186;2023-08-06T15:23:41;5.10;;;4.60;;
8702;SDS011;9002;42.708;23.186;2023-08-06T15:26:09;5.50;;;4.00;;
8702;SDS011;9002;42.708;23.186;2023-08-06T15:28:38;4.07;;;3.77;;
8702;SDS011;9002;42.708;23.186;2023-08-06T15:31:04;4.90;;;4.43;;